Date,TemperatureHighF,TemperatureAvgF,TemperatureLowF,DewpointHighF,DewpointAvgF,DewpointLowF,HumidityHigh,HumidityAvg,HumidityLow,PressureMaxIn,PressureMinIn,WindSpeedMaxMPH,WindSpeedAvgMPH,GustSpeedMaxMPH,PrecipitationSumIn
2014-1-1,49.2,35.2,26.7,32.9,27.4,23.4,91,75,47,30.45,30.18,1,0,2,0.00
2014-1-2,46.0,39.7,31.9,42.3,36.0,27.3,93,87,77,30.19,29.60,2,0,4,0.29
2014-1-3,40.0,27.1,17.8,36.7,14.1,9.1,88,59,41,30.50,29.68,6,2,14,0.00
2014-1-4,34.2,25.5,13.7,26.0,16.1,9.5,86,69,48,30.54,30.32,1,0,2,0.00
2014-1-5,50.7,41.4,32.7,47.1,35.8,25.7,93,80,73,30.32,29.80,1,0,3,0.01
2014-1-6,57.9,40.7,14.2,56.1,32.0,-3.3,95,73,44,30.21,29.64,4,2,10,0.33
2014-1-7,23.1,14.2,7.0,4.9,-1.8,-7.4,70,49,36,30.54,30.22,3,1,5,0.00
2014-1-8,40.6,23.0,9.4,17.2,11.0,4.3,82,62,36,30.65,30.52,1,0,3,0.00
2014-1-9,50.2,31.3,20.3,29.0,20.1,13.5,83,66,29,30.61,30.50,1,0,2,0.00
2014-1-10,42.8,39.9,37.2,41.2,35.8,29.3,94,85,71,30.50,30.11,1,0,1,0.71
2014-1-11,65.4,52.0,41.8,63.9,50.6,40.2,97,95,91,30.11,29.61,4,1,4,0.76
2014-1-12,56.0,45.3,30.8,50.2,35.5,27.1,94,70,44,30.18,29.68,3,1,6,0.00
2014-1-13,59.6,42.8,27.2,43.4,34.4,24.7,93,74,51,30.19,29.98,3,0,9,0.00
2014-1-14,51.4,45.1,31.6,47.2,42.3,29.5,94,90,76,29.99,29.80,1,0,3,0.23
2014-1-15,55.3,38.3,29.9,46.1,34.0,27.9,95,85,63,30.00,29.85,3,0,4,0.04
2014-1-16,42.7,34.0,26.2,31.5,26.8,20.9,91,76,47,30.05,29.94,2,0,5,0.06
2014-1-17,51.9,38.1,24.3,35.3,28.3,20.2,86,69,50,30.05,29.86,3,0,5,0.00
2014-1-18,45.2,31.0,23.1,30.0,17.0,10.8,74,57,40,30.07,29.86,4,1,7,0.00
2014-1-19,51.2,37.1,27.3,30.0,23.2,17.9,79,58,43,30.03,29.92,4,1,7,0.00
2014-1-20,62.5,39.9,24.3,35.7,26.6,20.8,88,64,30,29.93,29.79,4,1,4,0.00
2014-1-21,48.8,34.5,26.0,35.9,28.0,21.8,87,78,59,29.86,29.55,3,1,5,0.04
2014-1-22,28.6,23.2,16.4,22.9,12.3,6.2,87,64,41,30.13,29.85,3,1,5,0.01
2014-1-23,35.6,23.8,12.6,16.4,11.2,2.8,83,60,41,30.47,30.12,3,1,5,0.00
2014-1-24,24.6,16.5,9.0,3.1,-0.9,-3.9,59,46,33,30.65,30.29,3,1,5,0.00
2014-1-25,38.9,27.5,15.3,17.5,8.5,-0.5,52,45,35,30.30,29.67,5,2,11,0.00
2014-1-26,50.6,35.7,19.1,27.3,19.8,13.1,80,55,31,30.00,29.83,3,1,8,0.00
2014-1-27,63.1,46.8,31.4,39.9,30.9,8.1,72,55,37,30.12,29.78,3,1,7,0.00
2014-1-28,31.1,24.6,17.2,13.8,6.1,-0.6,81,47,32,30.34,30.12,2,1,4,0.00
2014-1-29,26.2,19.3,10.0,12.2,7.6,1.5,80,62,36,30.41,30.20,3,0,5,0.03
2014-1-30,35.6,17.8,1.0,12.0,4.8,-4.5,80,59,33,30.47,30.27,1,0,3,0.04
2014-1-31,52.3,28.3,10.5,25.6,14.9,5.1,82,60,32,30.27,30.16,2,0,4,0.02
2014-2-1,57.0,38.5,20.4,37.0,25.3,15.8,85,62,34,30.28,30.12,2,0,3,0.00
2014-2-2,62.8,47.5,32.3,47.9,40.2,28.9,91,77,56,30.12,30.03,3,0,5,0.00
2014-2-3,62.0,49.1,37.1,59.3,45.7,33.3,93,88,83,30.28,29.88,4,1,9,0.13
2014-2-4,38.0,37.4,36.5,36.0,34.2,33.0,93,88,85,30.42,30.17,1,0,2,0.34
2014-2-5,50.9,41.6,37.1,47.8,39.4,31.6,95,92,73,30.12,29.81,3,1,5,0.06
2014-2-6,41.7,35.9,29.5,31.0,26.0,22.1,77,68,54,30.34,30.10,2,0,5,0.00
2014-2-7,49.4,38.4,30.0,32.9,29.5,25.2,86,71,50,30.37,30.26,2,0,5,0.00
2014-2-8,49.4,36.8,29.9,32.9,28.8,24.5,88,74,52,30.31,30.13,1,0,4,0.00
2014-2-9,55.0,38.6,26.4,41.8,32.4,22.8,89,79,60,30.21,29.98,2,0,3,0.00
2014-2-10,38.4,33.9,30.3,32.7,30.4,27.4,92,87,69,30.27,30.03,1,0,5,0.07
2014-2-11,33.7,30.2,23.4,31.6,23.9,16.0,92,78,64,30.42,30.26,1,0,3,0.01
2014-2-12,26.2,23.9,21.6,23.7,16.7,12.9,90,75,58,30.45,29.84,2,0,3,0.00
2014-2-13,33.9,30.5,26.3,32.1,28.4,23.8,93,92,88,29.83,29.47,2,0,4,0.20
2014-2-14,57.4,40.3,27.1,35.0,29.0,24.0,89,68,32,29.82,29.67,4,1,6,0.51
2014-2-15,44.2,36.6,29.3,36.8,27.2,17.3,92,70,46,30.08,29.58,5,1,12,0.21
2014-2-16,50.3,36.2,27.9,31.3,23.8,16.7,82,62,46,30.19,30.03,4,1,5,0.00
2014-2-17,44.0,34.4,26.3,27.1,24.1,21.9,85,67,47,30.41,30.19,2,0,4,0.00
2014-2-18,63.2,44.4,33.8,38.0,29.3,25.1,84,60,26,30.24,30.10,3,1,5,0.00
2014-2-19,71.3,54.1,35.4,60.2,48.7,26.8,94,82,62,30.10,29.90,4,1,5,0.39
2014-2-20,73.1,57.0,44.5,59.3,49.5,42.1,93,77,58,30.20,29.98,3,0,4,0.00
2014-2-21,68.0,57.2,34.7,62.9,52.8,32.1,93,85,73,30.05,29.78,5,2,6,0.52
2014-2-22,64.4,43.7,29.6,43.8,33.2,27.5,95,71,32,30.22,30.04,2,0,2,0.00
2014-2-23,67.0,47.9,29.5,44.5,35.4,25.8,91,65,37,30.13,29.89,4,1,10,0.00
2014-2-24,58.2,47.9,31.5,41.1,30.4,22.1,80,53,28,30.16,29.88,4,1,10,0.00
2014-2-25,52.9,37.2,25.6,29.0,23.0,20.4,82,59,34,30.15,29.98,2,0,4,0.00
2014-2-26,47.3,37.5,30.1,26.8,23.4,15.7,74,57,42,30.00,29.80,2,0,9,0.00
2014-2-27,52.9,35.3,20.5,24.5,16.9,13.0,76,50,24,30.03,29.77,5,1,7,0.00
2014-2-28,44.4,33.2,26.2,19.5,15.4,10.5,62,48,35,30.35,30.03,2,0,4,0.00
2014-3-1,53.6,37.6,26.7,34.6,23.9,15.0,82,58,47,30.39,30.24,2,0,3,0.00
2014-3-2,70.1,49.8,27.7,47.9,38.3,24.3,90,67,44,30.26,29.91,4,1,6,0.00
2014-3-3,58.0,37.4,19.3,47.1,32.3,13.9,89,82,67,30.32,29.83,2,1,6,0.36
2014-3-4,36.1,25.3,14.6,18.9,13.8,7.2,79,62,47,30.40,30.25,2,0,5,0.08
2014-3-5,43.3,33.3,26.0,24.3,19.7,16.4,77,58,43,30.33,30.16,1,0,3,0.03
2014-3-6,40.4,33.4,26.5,28.9,23.6,16.6,90,68,52,30.41,30.15,2,1,10,0.53
2014-3-7,34.9,32.4,29.4,32.8,30.2,27.6,93,92,90,30.16,29.93,4,1,6,1.90
2014-3-8,67.0,44.2,25.6,51.0,36.5,23.9,95,78,45,30.10,29.98,4,1,5,0.01
2014-3-9,64.8,48.2,33.3,45.6,37.1,30.4,93,69,40,30.10,29.98,3,1,6,0.00
2014-3-10,73.1,49.6,28.7,42.5,33.3,25.9,92,60,25,30.04,29.81,4,1,7,0.00
2014-3-11,78.9,57.7,36.5,46.8,39.4,32.1,89,56,26,29.82,29.66,3,1,6,0.00
2014-3-12,66.3,56.0,41.8,58.8,48.2,28.9,89,75,60,29.68,29.19,5,2,0,0.28
2014-3-13,41.4,37.5,32.1,28.9,23.9,18.5,62,58,52,29.84,29.64,4,2,1,0.00
2014-3-14,60.8,40.6,20.0,27.9,21.1,14.4,82,51,25,30.35,30.11,4,1,0,0.00
2014-3-15,71.5,55.6,42.8,41.1,36.9,28.5,74,52,32,30.10,29.95,5,1,0,0.00
2014-3-16,53.8,42.2,36.5,43.8,36.2,32.4,92,80,52,30.06,29.85,1,0,4,0.44
2014-3-17,37.0,31.7,29.9,34.8,29.5,27.6,92,92,91,30.01,29.85,1,0,5,0.36
2014-3-18,36.2,32.3,28.8,34.4,30.4,26.8,93,93,91,30.20,29.99,2,0,4,0.19
2014-3-19,47.4,39.8,34.0,45.2,37.9,32.5,94,93,91,30.21,30.00,1,0,3,0.03
2014-3-20,65.4,48.6,36.4,45.6,36.5,29.8,96,69,31,30.06,29.94,4,1,7,0.00
2014-3-21,68.6,47.7,27.7,38.3,31.8,24.2,89,59,29,30.18,30.05,3,1,5,0.00
2014-3-22,75.1,58.1,41.8,45.3,40.0,34.1,78,53,32,30.08,29.92,4,1,5,0.00
2014-3-23,54.5,43.3,32.9,40.1,37.3,30.3,91,80,52,30.17,29.94,4,0,5,0.15
2014-3-24,49.3,37.3,27.4,33.6,27.1,23.1,92,70,37,30.31,30.13,2,0,5,0.00
2014-3-25,44.1,34.9,29.9,33.8,28.7,23.4,83,78,67,30.12,29.92,3,0,4,0.00
2014-3-27,58.7,40.1,20.7,35.0,22.9,15.5,82,54,29,30.49,30.30,3,1,0,0.00
2014-3-28,66.6,54.2,41.9,57.3,48.0,35.2,93,80,63,30.30,30.11,3,0,0,0.22
2014-3-29,64.2,59.1,54.2,62.7,57.6,52.5,96,95,93,30.14,29.55,2,0,0,0.29
2014-3-30,60.0,47.2,40.4,58.6,37.2,31.1,95,69,48,29.97,29.57,7,2,0,0.00
2014-3-31,72.6,53.6,36.5,36.8,30.6,25.8,69,45,22,30.12,29.97,3,1,0,0.00
2014-4-1,81.0,56.6,35.4,45.7,37.6,31.1,89,56,24,30.16,29.99,3,0,0,0.00
2014-4-2,87.9,64.0,41.6,51.3,43.3,36.7,86,53,22,30.09,29.97,3,1,0,0.00
2014-4-3,79.0,58.7,44.1,56.6,46.8,39.3,85,66,43,30.09,29.90,2,0,2,0.00
2014-4-4,81.4,65.4,48.2,59.7,53.7,44.5,89,68,40,29.90,29.72,5,1,9,0.00
2014-4-5,72.1,61.0,50.6,56.0,42.1,32.8,82,52,32,30.08,29.78,3,1,6,0.00
2014-4-6,59.6,52.7,44.4,39.9,33.8,29.1,60,49,38,30.22,30.08,2,0,4,0.00
2014-4-7,60.6,49.5,41.3,58.9,45.6,38.4,95,87,55,30.10,29.67,2,0,4,1.53
2014-4-8,66.4,60.9,53.3,59.7,52.6,39.5,95,76,52,29.70,29.58,3,1,5,0.00
2014-4-9,68.3,54.7,42.9,48.1,42.4,38.4,91,66,37,30.12,29.69,3,1,4,0.03
2014-4-10,74.2,54.2,34.3,46.9,39.5,31.6,92,63,32,30.28,30.12,4,1,4,0.00
2014-4-11,79.1,63.2,47.9,50.7,45.6,40.0,75,55,32,30.21,30.05,5,1,7,0.00
2014-4-12,83.1,66.7,50.3,57.3,51.2,46.0,87,61,35,30.21,30.09,2,0,6,0.00
2014-4-13,81.3,69.4,57.3,61.7,56.0,50.9,82,64,48,30.21,30.06,3,1,5,0.00
2014-4-14,76.8,66.9,61.2,62.0,58.9,54.4,92,76,55,30.10,29.84,3,1,7,0.04
2014-4-15,70.2,59.2,38.3,65.2,56.2,32.4,95,90,71,30.03,29.58,8,2,8,0.79
2014-4-16,55.0,41.9,31.0,32.1,28.0,23.2,79,60,37,30.48,30.02,3,1,9,0.00
2014-4-17,63.3,44.8,28.3,38.8,31.8,25.2,90,65,32,30.59,30.42,2,1,3,0.00
2014-4-18,63.9,50.1,37.7,46.9,40.9,33.9,88,72,52,30.47,30.25,2,0,0,0.24
2014-4-19,54.8,49.3,44.8,48.3,45.4,42.6,92,87,74,30.25,30.16,2,0,3,0.52
2014-4-20,68.8,57.3,49.2,47.3,42.6,36.1,85,59,43,30.29,30.19,3,1,6,0.00
2014-4-21,75.4,56.2,39.1,44.7,37.5,33.5,81,54,23,30.21,29.93,2,0,4,0.00
2014-4-22,82.9,62.4,44.1,56.9,49.8,40.2,92,67,37,29.93,29.67,3,0,4,0.00
2014-4-23,70.8,59.0,45.0,53.9,41.7,34.3,92,59,27,29.99,29.70,4,1,6,0.00
2014-4-24,72.2,54.0,35.5,45.8,39.0,32.0,89,61,31,30.17,29.99,2,0,3,0.00
2014-4-25,77.7,57.7,42.2,67.7,53.8,38.9,93,87,67,30.02,29.66,2,0,5,0.64
2014-4-26,78.7,61.7,44.1,56.2,50.1,42.5,96,70,35,30.01,29.85,3,1,6,0.00
2014-4-27,85.2,65.6,46.1,60.6,52.3,43.3,92,67,33,30.02,29.90,2,0,3,0.00
2014-4-28,67.2,59.7,54.3,57.7,52.8,47.2,87,78,69,30.01,29.91,2,0,3,0.00
2014-4-29,59.0,55.3,51.7,57.0,53.2,49.6,95,93,88,30.04,29.93,1,0,2,0.16
2014-4-30,77.2,68.9,58.4,74.0,66.4,57.0,97,92,81,30.04,29.88,2,0,3,0.55
2014-5-1,77.6,69.7,61.9,66.4,62.8,58.0,92,80,58,29.90,29.76,4,1,5,0.00
2014-5-2,67.6,59.0,47.4,57.6,48.1,43.6,91,70,44,29.96,29.82,2,0,3,0.00
2014-5-3,53.7,52.3,51.0,48.3,47.5,46.9,87,84,81,29.90,29.88,0,0,0,0.00
2014-5-4,82.5,74.3,59.5,57.8,55.1,52.4,80,54,37,29.90,29.81,3,1,4,0.00
2014-5-5,73.2,61.9,50.6,58.9,53.3,48.0,92,75,54,30.03,29.84,2,0,4,0.00
2014-5-6,84.0,67.0,54.6,64.7,57.5,50.4,89,74,41,29.98,29.86,1,0,3,0.00
2014-5-7,72.8,64.6,58.7,65.7,60.2,55.8,91,86,77,30.14,29.98,1,0,2,0.00
2014-5-8,88.8,70.2,51.5,68.9,58.3,49.5,95,70,38,30.19,30.06,2,0,4,0.00
2014-5-9,87.3,71.5,55.7,70.4,60.9,52.8,93,72,46,30.15,30.01,2,0,6,0.00
2014-5-10,84.5,70.0,62.5,72.4,63.3,59.2,90,80,63,30.11,29.98,3,0,4,0.00
2014-5-11,84.4,72.4,57.0,68.9,61.1,54.7,93,70,42,30.15,30.04,1,0,0,0.00
2014-5-12,89.6,72.0,54.7,70.9,62.0,52.4,94,74,45,30.19,30.09,1,0,2,0.00
2014-5-13,90.0,75.3,60.7,74.6,66.4,58.4,94,76,52,30.15,30.05,1,0,3,0.00
2014-5-14,87.1,76.0,66.6,73.0,66.7,61.4,92,74,55,30.15,30.04,1,0,2,0.00
2014-5-15,75.1,68.9,66.8,70.3,65.5,62.0,96,89,74,30.10,29.83,1,0,2,3.68
2014-5-16,69.6,61.8,52.7,67.1,54.1,49.1,96,77,51,30.04,29.81,2,1,4,0.28
2014-5-17,69.3,57.7,42.7,52.9,46.3,39.1,90,68,43,30.19,30.05,2,0,4,0.00
2014-5-18,66.4,57.0,46.6,52.5,48.4,43.8,92,74,51,30.24,30.18,2,0,3,0.00
2014-5-19,71.8,57.2,41.7,55.8,46.5,39.0,93,71,42,30.33,30.22,1,0,3,0.00
2014-5-20,77.7,62.2,44.9,60.3,53.3,42.1,92,74,53,30.29,30.09,2,0,4,0.00
2014-5-21,85.8,71.8,59.0,68.1,62.0,55.8,91,73,50,30.09,29.93,2,0,4,0.00
2014-5-22,86.6,74.5,64.2,68.7,64.8,61.2,91,74,50,29.95,29.84,2,0,4,0.00
2014-5-23,82.7,70.6,60.1,67.6,60.8,56.1,94,73,45,30.02,29.91,2,0,4,0.00
2014-5-24,78.4,64.4,49.5,56.9,52.5,46.7,92,69,42,30.14,30.00,2,0,3,0.00
2014-5-25,80.7,65.7,50.1,64.7,56.8,47.3,93,75,46,30.20,30.12,1,0,2,0.00
2014-5-26,84.2,71.4,58.3,68.3,62.9,55.4,93,76,55,30.21,30.05,2,0,3,0.00
2014-5-27,89.2,73.3,65.6,72.5,67.0,62.9,93,82,54,30.10,29.95,5,0,10,0.24
2014-5-28,88.7,74.4,61.7,74.5,68.1,60.0,96,82,58,30.00,29.92,1,0,3,0.01
2014-5-29,74.5,69.4,63.9,68.3,65.3,61.7,93,87,81,30.11,29.97,1,0,2,0.00
2014-5-30,75.3,69.4,64.6,69.5,65.3,61.9,93,87,79,30.14,30.04,1,0,1,0.00
2014-5-31,82.5,70.9,59.8,66.7,61.5,54.6,94,74,50,30.22,30.10,2,0,2,0.00
2014-6-1,79.4,65.9,54.6,56.5,53.9,51.4,91,68,41,30.34,30.22,1,0,3,0.00
2014-6-2,80.7,65.0,48.7,62.1,55.6,45.9,93,74,50,30.30,30.11,1,0,2,0.00
2014-6-3,86.1,69.3,52.3,71.2,61.6,49.8,93,78,55,30.13,29.93,1,0,4,0.00
2014-6-4,90.7,73.8,63.4,73.3,67.7,61.0,94,83,51,29.94,29.76,3,0,3,0.04
2014-6-5,89.1,77.8,69.6,74.7,69.6,64.9,91,77,55,29.84,29.70,2,0,6,0.00
2014-6-6,82.5,72.6,62.7,68.1,63.7,58.1,88,74,57,29.95,29.83,1,0,2,0.00
2014-6-7,82.4,70.8,57.8,71.0,63.1,55.5,93,78,55,30.03,29.94,1,0,3,0.00
2014-6-8,85.9,71.9,61.4,70.0,65.6,58.7,93,82,55,29.98,29.87,2,0,3,0.03
2014-6-9,81.0,72.7,65.9,74.1,69.0,63.8,95,89,75,29.93,29.85,1,0,2,0.40
2014-6-10,88.7,76.7,65.4,77.9,70.6,63.6,96,83,58,29.94,29.87,1,0,2,0.01
2014-6-11,92.8,75.8,66.8,74.4,69.0,64.8,94,81,53,29.96,29.80,2,0,3,0.07
2014-6-12,83.7,73.4,66.7,74.9,69.4,64.9,96,88,71,29.93,29.80,1,0,1,0.01
2014-6-13,85.6,75.0,66.8,73.5,68.8,64.9,94,82,62,29.86,29.76,1,0,2,0.00
2014-6-14,85.4,73.2,61.6,68.4,63.9,57.4,94,75,50,30.06,29.86,2,0,4,0.00
2014-6-15,85.8,69.7,53.8,71.5,62.5,51.2,94,79,54,30.19,30.06,1,0,2,0.00
2014-6-16,93.2,78.2,65.8,76.4,69.8,63.1,94,77,52,30.18,30.06,1,0,3,0.00
2014-6-17,93.4,80.2,68.3,76.4,70.6,65.2,92,74,50,30.14,30.04,1,0,3,0.00
2014-6-18,94.8,78.9,68.2,80.2,71.8,65.5,92,80,50,30.10,30.01,1,0,3,0.08
2014-6-19,94.7,79.1,68.3,77.1,70.5,65.9,93,77,49,30.08,29.97,3,0,5,0.00
2014-6-20,90.5,77.0,67.7,75.7,70.3,65.3,94,81,57,30.03,29.90,2,0,3,0.09
2014-6-21,88.1,76.9,66.9,76.1,71.4,65.1,96,84,61,29.94,29.77,1,0,3,0.01
2014-6-22,80.8,73.7,68.8,72.1,69.3,66.7,94,86,73,29.98,29.81,2,0,3,0.00
2014-6-23,85.0,74.6,65.4,70.8,66.5,63.0,93,77,56,30.12,29.98,1,0,3,0.00
2014-6-24,87.6,75.0,63.3,74.1,67.9,60.9,93,80,61,30.14,30.00,1,0,5,0.00
2014-6-25,90.9,79.3,72.2,75.4,71.5,68.7,93,78,57,30.02,29.86,2,0,3,0.00
2014-6-26,91.7,79.0,67.2,74.1,69.7,64.8,93,75,48,29.98,29.89,2,0,3,0.00
2014-6-27,85.9,75.7,70.2,75.4,70.2,67.2,92,84,67,30.11,29.97,2,0,6,0.00
2014-6-28,84.6,75.7,69.6,71.8,68.9,61.4,94,80,61,30.21,30.11,1,0,4,0.01
2014-6-29,88.8,72.9,59.0,68.1,61.7,55.9,91,70,41,30.24,30.11,2,0,3,0.00
2014-6-30,90.7,75.4,61.9,73.1,67.1,59.2,93,77,51,30.12,29.95,1,0,3,0.00
2014-7-1,90.6,80.0,71.4,76.5,72.0,67.7,88,77,59,29.99,29.86,1,0,3,0.00
2014-7-2,95.5,84.1,73.8,77.0,73.4,70.0,89,72,50,29.95,29.88,2,0,5,0.00
2014-7-3,90.6,79.8,73.8,77.7,72.5,69.3,90,79,63,30.00,29.84,1,0,4,0.00
2014-7-4,86.9,77.0,68.0,69.9,62.5,55.5,85,62,45,30.16,29.88,2,1,5,0.00
2014-7-5,84.1,71.9,58.0,58.0,55.3,52.4,85,58,38,30.28,30.16,2,0,3,0.00
2014-7-6,86.6,71.6,55.3,67.6,60.3,52.2,92,70,42,30.19,30.01,2,0,3,0.00
2014-7-7,90.0,81.2,64.7,73.8,68.0,61.3,92,66,47,30.06,29.91,2,1,4,0.00
2014-7-8,94.9,82.8,71.8,72.9,67.5,63.2,88,63,37,30.01,29.85,3,1,4,0.00
2014-7-9,90.5,78.3,72.1,74.5,69.3,64.7,91,75,50,30.02,29.90,2,0,2,0.01
2014-7-10,81.4,74.5,70.1,74.3,70.5,67.9,93,88,77,30.10,29.99,1,0,3,0.20
2014-7-11,71.3,69.6,68.7,69.8,67.9,66.9,95,94,93,30.16,30.09,0,0,0,0.00
2014-7-12,89.6,75.7,63.2,75.1,67.9,61.1,95,78,54,30.22,30.11,1,0,0,0.00
2014-7-13,94.2,79.7,68.0,76.1,68.8,64.7,94,72,45,30.14,29.98,1,0,0,0.00
2014-7-14,95.8,82.3,73.5,77.1,72.4,68.8,92,74,47,30.00,29.83,2,0,0,0.80
2014-7-15,89.6,76.0,70.8,80.6,73.0,69.0,96,91,68,29.86,29.70,1,0,0,0.76
2014-7-16,78.7,71.9,65.6,69.8,67.6,62.6,96,87,68,29.93,29.78,1,0,4,0.06
2014-7-17,84.0,70.6,57.9,68.1,63.0,55.8,94,78,54,30.10,29.93,1,0,2,0.00
2014-7-18,84.4,71.5,59.4,70.2,62.7,57.1,95,76,49,30.19,30.10,1,0,3,0.00
2014-7-19,83.5,70.7,64.4,66.0,63.2,59.6,92,79,46,30.17,30.08,2,0,4,0.00
2014-7-20,78.7,71.4,65.6,73.1,68.1,63.3,94,90,82,30.14,30.04,1,0,1,0.06
2014-7-21,75.4,73.5,72.1,74.2,72.0,70.1,96,95,92,30.16,30.05,0,0,0,0.78
2014-7-22,82.7,74.8,69.2,77.1,72.2,68.0,97,92,80,30.17,30.07,1,0,4,0.00
2014-7-23,89.0,78.1,67.9,77.6,72.4,66.4,96,84,64,30.10,29.89,1,0,3,0.00
2014-7-24,88.6,77.4,68.4,76.8,72.1,66.0,94,84,63,29.96,29.80,2,0,3,0.47
2014-7-25,80.2,71.9,65.4,72.9,68.2,63.6,96,88,76,30.06,29.95,1,0,2,0.01
2014-7-26,86.1,75.1,65.9,76.8,70.4,63.8,95,86,64,30.03,29.91,1,0,2,0.00
2014-7-27,83.8,75.7,68.4,77.2,71.7,66.3,95,88,76,29.98,29.73,2,0,4,0.23
2014-7-28,86.9,78.0,66.5,73.8,66.8,60.6,89,70,51,29.87,29.71,2,0,5,0.00
2014-7-29,82.9,70.3,60.7,66.4,61.1,57.4,91,74,47,29.99,29.86,1,0,3,0.00
2014-7-30,80.0,69.6,60.9,69.3,64.1,58.4,92,83,67,30.08,29.98,1,0,2,0.00
2014-7-31,78.7,70.1,61.8,72.3,66.4,59.8,94,88,75,30.16,30.07,1,0,2,0.38
2014-8-1,72.6,67.2,63.6,70.5,65.5,61.9,96,94,92,30.16,30.07,1,0,2,0.82
2014-8-2,69.3,66.0,63.0,67.8,64.7,61.8,96,96,95,30.13,30.07,0,0,2,0.08
2014-8-3,77.5,69.7,65.6,72.2,67.5,64.4,97,93,83,30.13,30.03,0,0,1,0.00
2014-8-4,82.9,73.5,66.6,73.6,68.8,64.5,96,86,67,30.11,30.02,1,0,2,0.00
2014-8-5,86.9,74.2,64.3,74.6,68.1,62.5,96,83,57,30.06,29.96,1,0,2,0.00
2014-8-6,89.9,76.7,68.0,73.6,68.9,66.2,95,79,46,29.98,29.90,1,0,3,0.00
2014-8-7,85.4,74.6,65.6,74.1,68.7,63.5,94,83,67,30.02,29.91,1,0,2,0.00
2014-8-8,76.8,71.3,64.5,72.3,67.9,62.4,94,89,81,30.12,30.02,0,0,1,0.00
2014-8-9,71.4,66.3,63.2,69.2,64.7,61.5,96,95,92,30.13,30.04,0,0,1,1.48
2014-8-10,75.4,69.5,65.3,72.0,67.6,64.1,97,94,87,30.12,30.04,0,0,1,0.05
2014-8-11,81.0,72.8,69.0,75.0,70.0,67.5,95,91,78,30.08,29.95,0,0,1,0.90
2014-8-12,83.0,73.6,69.0,78.6,71.5,67.5,96,93,84,29.98,29.76,2,0,3,0.42
2014-8-13,80.2,71.6,62.4,69.8,66.2,59.7,96,84,61,29.98,29.80,2,0,4,0.01
2014-8-14,83.1,68.3,56.9,67.5,61.5,55.2,95,81,50,30.05,29.94,1,0,3,0.00
2014-8-15,84.2,70.8,58.4,72.6,65.5,56.4,95,84,61,30.04,29.94,1,0,1,0.00
2014-8-16,88.2,75.3,66.0,73.4,68.6,64.2,95,81,56,30.03,29.96,1,0,2,0.00
2014-8-17,89.3,76.1,66.7,76.2,70.4,64.6,95,84,59,30.01,29.93,1,0,2,0.00
2014-8-18,82.8,74.2,70.3,77.8,71.7,68.5,95,92,83,29.94,29.76,1,0,4,0.49
2014-8-19,83.4,74.5,66.1,76.0,71.2,64.6,97,90,75,29.89,29.76,1,0,2,0.02
2014-8-20,87.0,76.5,68.5,79.3,72.7,66.7,96,89,73,30.01,29.87,1,0,2,0.00
2014-8-21,90.3,76.8,68.4,76.4,71.5,66.6,96,85,57,30.07,29.97,1,0,3,0.00
2014-8-22,90.1,73.5,68.7,78.7,69.4,66.9,95,83,64,30.03,29.93,1,0,4,0.33
2014-8-23,83.8,76.0,72.9,78.3,73.8,70.8,96,93,82,29.98,29.89,1,0,2,0.10
2014-8-24,76.5,72.1,65.8,70.9,67.5,62.5,94,86,73,30.11,29.96,2,0,5,0.01
2014-8-25,78.7,68.5,57.6,65.9,62.1,55.6,94,81,59,30.13,30.08,2,0,4,0.00
2014-8-26,80.2,68.4,57.1,66.8,62.2,55.1,95,82,60,30.16,30.08,1,0,4,0.00
2014-8-27,85.2,69.5,55.8,69.6,61.7,53.8,96,79,48,30.08,29.96,2,0,3,0.00
2014-8-28,90.8,74.6,61.2,78.3,68.9,58.7,94,84,59,30.00,29.93,1,0,2,0.00
2014-8-29,80.0,74.8,70.3,74.2,71.3,68.5,94,89,79,30.16,30.00,1,0,3,0.06
2014-8-30,87.4,77.6,72.3,77.5,72.9,70.3,95,86,66,30.21,30.09,1,0,3,0.04
2014-8-31,88.7,78.1,71.0,77.1,73.2,69.5,96,86,67,30.18,30.03,2,0,3,0.00
2014-9-1,91.7,79.2,70.7,79.0,73.4,68.6,95,84,56,30.09,29.99,1,0,3,0.00
2014-9-2,94.7,79.2,69.2,79.2,71.9,67.1,95,80,52,30.06,29.92,2,0,3,0.00
2014-9-3,91.7,78.8,70.2,76.9,72.2,68.0,94,81,58,30.11,29.96,1,0,3,0.00
2014-9-4,87.0,77.4,71.5,77.7,72.4,68.2,93,85,70,30.19,30.07,1,0,3,0.00
2014-9-5,89.4,77.8,68.9,78.4,72.3,67.1,96,84,60,30.19,30.06,1,0,2,0.00
2014-9-6,88.2,77.3,67.7,77.5,71.6,65.6,95,83,64,30.08,29.92,1,0,2,0.00
2014-9-7,79.0,73.8,70.9,72.0,69.8,65.9,94,87,78,30.10,29.95,2,0,4,0.00
2014-9-8,71.3,68.3,66.1,68.9,66.3,64.3,95,93,83,30.11,30.02,1,0,3,0.41
2014-9-9,73.1,68.1,64.0,69.9,66.0,62.5,96,93,88,30.12,30.04,1,0,3,0.03
2014-9-10,77.9,70.7,65.8,72.4,68.0,64.3,96,91,79,30.14,30.03,0,0,0,0.00
2014-9-11,85.2,73.7,63.2,76.8,69.7,61.7,96,88,71,30.05,29.92,2,0,7,0.04
2014-9-12,77.9,72.6,68.2,73.3,69.5,66.6,96,90,79,30.09,29.97,1,0,4,0.00
2014-9-13,76.9,71.3,67.0,74.2,68.7,61.3,95,92,82,30.18,30.03,2,0,5,0.08
2014-9-14,70.0,65.3,61.6,61.8,59.0,56.1,89,80,72,30.27,30.17,1,0,3,0.00
2014-9-15,73.0,66.7,62.2,66.9,63.1,59.3,93,89,79,30.24,30.09,1,0,2,0.00
2014-9-16,82.3,71.8,65.2,71.1,66.9,63.4,95,85,64,30.10,29.93,1,0,2,0.03
2014-9-17,78.4,69.9,64.2,68.7,65.5,62.4,95,86,70,29.99,29.89,1,0,4,0.01
2014-9-18,79.8,68.0,58.1,68.4,63.2,56.4,95,85,62,30.05,29.93,1,0,2,0.00
2014-9-19,78.7,68.9,63.4,65.9,62.7,60.7,93,82,59,30.24,30.06,1,0,5,0.00
2014-9-20,80.0,67.2,55.8,66.9,59.6,53.8,95,79,53,30.24,30.00,2,0,3,0.00
2014-9-21,85.1,71.3,60.0,69.4,64.1,58.0,94,80,53,30.00,29.78,2,0,3,0.05
2014-9-22,73.6,66.2,59.0,67.2,59.4,55.0,93,80,56,30.15,29.86,2,0,5,0.01
2014-9-23,60.8,57.8,53.6,57.6,51.8,48.0,92,81,72,30.34,30.15,2,0,4,0.03
2014-9-24,62.1,57.4,53.1,60.9,55.8,50.8,96,94,91,30.33,30.24,2,0,5,1.45
2014-9-25,66.5,63.5,61.4,63.8,61.7,60.2,96,94,90,30.26,30.18,1,0,5,0.06
2014-9-26,72.0,65.0,58.7,66.4,62.1,56.4,95,90,79,30.22,30.15,1,0,4,0.01
2014-9-27,73.9,62.9,53.4,65.5,58.4,51.7,96,86,68,30.24,30.15,1,0,3,0.00
2014-9-28,75.3,62.8,51.0,66.2,58.4,49.1,96,86,67,30.21,30.07,1,0,2,0.00
2014-9-29,66.2,63.6,61.4,64.7,62.1,59.7,96,95,92,30.08,29.96,0,0,1,0.16
2014-9-30,73.1,65.1,59.9,69.6,63.1,57.8,97,93,85,29.96,29.85,1,0,2,0.01
2014-10-1,72.4,63.4,55.7,67.8,61.0,54.3,96,92,82,30.04,29.91,0,0,1,0.01
2014-10-2,78.9,67.2,57.0,72.6,63.6,55.3,96,89,73,30.12,30.02,1,0,2,0.00
2014-10-3,79.7,69.3,59.0,70.7,64.5,57.3,96,85,60,30.06,29.74,2,0,3,0.00
2014-10-4,71.4,61.4,45.5,68.6,50.9,36.0,95,67,40,29.91,29.67,3,1,6,0.00
2014-10-5,63.5,49.2,35.8,45.6,39.9,32.9,92,73,46,30.04,29.88,2,0,4,0.00
2014-10-6,72.9,56.1,39.8,54.7,47.0,37.4,93,74,49,30.11,30.00,2,0,4,0.00
2014-10-7,76.0,63.5,50.6,62.0,55.5,47.6,92,76,57,30.13,29.98,2,0,4,0.00
2014-10-8,81.0,66.4,56.2,66.6,60.2,53.3,94,82,57,30.06,29.93,2,0,7,0.00
2014-10-9,77.2,61.8,47.6,60.2,53.7,45.3,94,77,47,30.18,30.05,1,0,3,0.00
2014-10-10,80.7,67.9,55.2,69.6,62.3,52.6,93,83,67,30.11,29.97,3,0,4,0.66
2014-10-11,81.2,68.7,58.5,73.7,65.5,55.9,96,90,72,30.11,29.92,2,0,4,0.09
2014-10-12,59.7,57.9,55.9,58.6,56.1,53.9,96,94,91,30.24,30.10,1,0,2,0.07
2014-10-13,75.7,66.2,59.7,71.6,64.3,58.6,97,94,86,30.26,30.13,1,0,2,0.01
2014-10-14,71.3,69.8,66.9,70.1,68.5,65.7,97,96,95,30.14,30.04,1,0,2,0.23
2014-10-15,72.6,63.7,54.7,70.4,61.7,53.0,95,93,87,29.91,29.79,1,0,2,0.63
2014-10-16,68.6,57.3,49.6,60.7,53.7,47.9,96,89,68,29.86,29.76,2,0,3,0.00
2014-10-17,71.4,57.1,44.7,60.1,51.7,43.1,96,83,60,29.94,29.80,2,0,4,0.00
2014-10-18,74.0,59.1,49.2,60.6,51.1,46.3,96,77,52,29.92,29.76,3,1,10,0.01
2014-10-19,63.9,52.3,41.4,47.7,43.9,38.1,92,75,50,30.15,29.92,2,0,4,0.00
2014-10-20,68.1,50.7,36.7,53.4,44.1,34.6,95,80,54,30.18,29.99,2,0,5,0.00
2014-10-21,72.1,44.6,45.0,57.8,39.3,42.8,95,62,53,29.98,29.83,2,0,4,0.00
2014-10-22,65.4,35.4,47.4,48.5,27.6,41.5,80,39,52,30.05,29.93,4,1,7,0.00
2014-10-23,67.0,52.6,40.1,49.4,43.8,37.4,91,74,52,30.05,29.93,3,1,6,0.00
2014-10-24,69.5,53.5,42.7,52.7,45.1,39.1,90,75,49,30.08,29.96,1,0,3,0.00
2014-10-25,69.5,49.6,36.5,51.2,42.5,34.4,94,79,44,30.04,29.88,1,0,3,0.00
2014-10-26,75.5,54.5,46.8,57.9,44.7,43.1,92,66,38,29.99,29.84,2,0,6,0.00
2014-10-27,75.2,40.2,35.6,53.5,32.6,33.2,95,55,38,30.14,29.98,1,0,3,0.00
2014-10-28,81.6,60.6,44.7,67.6,53.8,42.2,95,80,54,30.15,30.02,2,0,4,0.00
2014-10-29,77.2,63.2,53.6,62.9,57.6,48.9,93,83,57,30.03,29.89,2,0,5,0.18
2014-10-30,66.1,53.3,42.4,50.9,45.4,39.1,94,77,45,30.07,29.96,2,0,4,0.01
2014-10-31,60.8,48.2,36.9,48.7,42.7,34.7,93,82,61,30.01,29.76,1,0,3,0.00
2014-11-1,49.7,46.6,42.4,44.9,41.7,35.2,92,83,67,29.96,29.71,4,1,11,0.56
2014-11-2,51.7,42.6,31.1,35.1,28.9,25.5,80,59,40,30.33,29.96,4,1,10,0.00
2014-11-3,62.3,42.2,27.4,39.3,30.9,24.0,89,68,31,30.45,30.33,2,0,5,0.00
2014-11-4,65.7,48.7,33.5,46.6,38.5,30.6,91,71,39,30.36,30.25,2,0,3,0.00
2014-11-5,68.6,54.5,43.1,53.9,46.9,38.8,90,77,57,30.30,30.14,2,0,4,0.00
2014-11-6,64.4,58.1,44.5,62.2,55.3,41.5,94,91,86,30.13,29.72,3,0,5,0.23
2014-11-7,58.1,36.2,37.1,43.9,29.9,35.3,94,58,49,30.08,29.85,4,1,7,0.00
2014-11-8,57.2,32.5,29.4,42.2,26.6,27.1,93,50,55,30.11,29.96,2,0,4,0.00
2014-11-9,59.2,46.3,35.7,46.9,40.1,32.8,93,80,57,30.06,29.94,2,0,3,0.00
2014-11-10,64.5,44.9,31.1,50.1,38.9,28.8,94,81,57,30.16,30.05,1,0,3,0.00
2014-11-11,71.9,52.5,37.5,61.2,47.6,34.9,94,84,67,30.07,29.91,1,0,4,0.00
2014-11-12,75.0,55.9,40.1,60.2,48.0,38.0,96,77,48,30.05,29.92,2,0,5,0.00
2014-11-13,55.9,47.0,42.3,43.5,36.8,35.1,77,63,61,30.08,29.98,2,0,3,0.00
2014-11-14,42.3,36.5,28.1,35.2,23.2,14.6,80,59,44,30.35,30.05,4,1,7,0.00
2014-11-15,43.9,31.4,22.2,22.1,18.2,14.5,78,59,39,30.49,30.35,1,0,3,0.00
2014-11-16,48.2,29.5,24.3,39.1,22.9,19.0,88,49,52,30.41,30.07,1,0,3,0.00
2014-11-17,63.0,49.3,39.7,61.5,46.7,33.6,96,91,75,30.07,29.61,3,0,11,0.46
2014-11-18,39.5,29.9,18.4,33.2,17.5,12.3,78,61,41,30.35,29.88,3,1,10,0.00
2014-11-19,40.4,27.8,14.4,20.5,15.9,10.4,86,63,39,30.45,30.25,2,0,5,0.00
2014-11-20,56.5,38.5,23.9,34.0,25.6,17.7,81,62,40,30.25,30.03,4,1,7,0.00
2014-11-21,46.1,32.7,22.7,25.6,20.0,15.3,88,63,33,30.57,30.17,4,0,6,0.00
2014-11-22,51.6,31.8,17.6,26.7,19.5,13.5,87,64,32,30.61,30.35,1,0,4,0.00
2014-11-23,62.0,45.4,28.9,60.6,40.8,22.0,95,84,70,30.35,29.74,2,0,5,0.62
2014-11-24,71.0,63.8,57.7,63.3,60.4,56.3,96,89,75,29.90,29.72,3,1,5,0.02
2014-11-25,63.7,56.8,46.9,61.2,51.5,43.8,94,83,64,30.12,29.88,1,0,3,0.07
2014-11-26,48.3,42.4,32.5,46.4,40.4,30.7,94,92,90,30.08,29.90,3,0,5,1.35
2014-11-27,43.2,38.7,31.0,41.0,36.3,27.4,95,91,79,30.28,30.01,1,0,4,0.04
2014-11-28,42.3,29.2,24.5,27.7,22.0,21.3,89,66,52,30.41,30.27,3,0,6,0.00
2014-11-29,52.1,32.5,24.1,36.0,25.2,20.8,90,67,49,30.37,30.25,2,0,6,0.00
2014-11-30,64.8,31.4,41.6,51.5,26.1,38.3,89,41,59,30.32,30.21,3,1,5,0.00
2014-12-1,62.9,27.3,36.3,50.8,24.9,34.0,93,54,66,30.36,30.26,0,0,0,0.00
2014-12-2,49.9,46.1,42.7,47.6,42.6,39.7,94,88,80,30.47,30.33,1,0,3,0.00
2014-12-3,59.0,48.4,41.1,55.4,46.1,39.0,95,92,87,30.35,30.16,2,0,3,0.01
2014-12-4,52.5,45.1,37.5,44.3,39.4,35.9,95,81,60,30.44,30.28,1,0,4,0.00
2014-12-5,50.1,45.3,41.1,41.4,38.3,34.9,87,76,68,30.50,30.35,0,0,2,0.00
2014-12-6,54.0,49.7,43.6,52.3,47.1,39.9,94,91,86,30.35,30.04,3,0,3,0.10
2014-12-7,51.5,44.4,34.8,48.7,33.9,22.9,91,68,47,30.47,30.12,4,1,10,0.01
2014-12-8,42.7,37.8,33.9,33.8,28.9,22.5,90,71,60,30.46,30.17,2,0,6,0.18
2014-12-9,43.0,39.3,34.4,40.8,37.2,32.0,94,92,90,30.17,29.93,2,0,6,0.27
2014-12-10,48.0,38.1,27.5,39.0,31.1,22.7,95,77,54,30.03,29.94,4,1,7,0.01
2014-12-11,46.4,32.3,24.2,28.0,23.2,19.8,87,71,43,30.16,29.99,3,0,6,0.00
2014-12-12,54.9,36.3,23.6,28.7,23.8,19.4,84,64,33,30.25,30.11,3,0,5,0.00
2014-12-13,59.0,38.1,25.3,32.7,26.2,20.9,86,66,35,30.17,30.03,3,0,7,0.00
2014-12-14,56.0,39.0,26.9,38.6,30.7,23.1,88,73,51,30.10,30.00,2,0,5,0.00
2014-12-15,57.3,39.0,27.3,44.2,32.9,24.5,92,80,57,30.16,30.05,2,0,3,0.00
2014-12-16,49.1,40.3,29.3,47.7,38.2,26.5,98,92,86,30.10,29.90,1,0,2,0.19
2014-12-17,57.7,41.4,30.2,45.9,35.7,28.7,96,82,54,30.13,30.00,2,0,4,0.00
2014-12-18,49.9,37.6,27.9,34.4,29.3,25.3,91,74,48,30.20,30.09,3,0,5,0.00
2014-12-19,52.3,40.5,32.8,32.9,29.5,26.5,83,67,43,30.24,30.11,3,0,5,0.00
2014-12-20,36.2,34.6,32.6,33.8,30.7,27.5,91,85,77,30.33,30.22,0,0,1,0.06
2014-12-21,47.2,39.9,36.1,39.7,35.7,32.4,92,85,73,30.34,30.23,1,0,2,0.00
2014-12-22,40.6,36.4,34.8,34.9,33.8,32.4,94,91,77,30.24,30.06,1,0,5,0.40
2014-12-23,43.7,39.5,35.8,42.6,38.1,34.2,96,95,94,30.10,29.93,0,0,1,0.19
2014-12-24,63.2,54.2,43.7,62.0,53.2,42.6,100,97,95,29.94,29.66,1,0,4,1.38
2014-12-25,62.8,49.0,30.1,61.6,41.6,27.0,96,77,53,30.26,29.67,4,1,10,0.03
2014-12-26,57.2,37.8,25.9,42.9,31.4,23.4,93,79,51,30.39,30.25,2,0,3,0.00
2014-12-27,61.1,41.3,26.7,47.7,34.2,24.2,94,78,51,30.36,30.21,2,0,4,0.00
2014-12-28,60.9,51.7,44.1,56.0,48.0,39.9,93,87,84,30.19,29.99,2,0,3,0.00
2014-12-29,53.6,47.7,39.4,52.2,46.2,38.1,95,94,93,30.21,30.04,1,0,3,0.78
2014-12-30,39.4,35.4,26.4,37.8,33.3,24.4,95,92,86,30.46,30.20,1,0,5,0.04
2014-12-31,43.2,31.8,24.7,31.6,25.6,20.9,94,79,53,30.50,30.38,2,0,4,0.00
2015-1-1,49.7,34.2,20.1,35.8,27.1,17.1,95,77,53,30.38,30.22,2,0,4,0.00
2015-1-2,53.7,45.6,38.2,43.6,39.6,35.0,90,80,65,30.38,30.23,0,0,1,0.00